createdAt,value
2019-01-09T00:01:30.217Z,2.50
2019-01-09T00:03:59.098Z,2.10
2019-01-09T00:06:27.584Z,2.00
2019-01-09T00:08:56.404Z,2.00
2019-01-09T00:11:24.984Z,2.50
2019-01-09T00:13:53.422Z,2.30
2019-01-09T00:16:21.976Z,2.10
2019-01-09T00:18:50.564Z,2.20
2019-01-09T00:21:19.169Z,2.10
2019-01-09T00:23:47.736Z,2.20
2019-01-09T00:26:16.241Z,2.20
2019-01-09T00:28:44.878Z,2.20
2019-01-09T00:31:13.444Z,2.10
2019-01-09T00:33:41.885Z,2.20
2019-01-09T00:36:10.464Z,2.20
2019-01-09T00:38:40.595Z,2.10
2019-01-09T00:41:09.310Z,1.80
2019-01-09T00:43:37.877Z,2.00
2019-01-09T00:46:06.386Z,1.60
2019-01-09T00:48:34.942Z,2.00
2019-01-09T00:51:03.479Z,2.00
2019-01-09T00:53:32.118Z,1.80
2019-01-09T00:56:00.713Z,1.70
2019-01-09T00:58:29.489Z,1.90
2019-01-09T01:00:58.046Z,1.30
2019-01-09T01:04:05.671Z,1.80
2019-01-09T01:06:54.989Z,1.90
2019-01-09T01:09:42.801Z,2.00
2019-01-09T01:12:30.677Z,1.80
2019-01-09T01:15:07.993Z,1.70
2019-01-09T01:18:03.268Z,1.80
2019-01-09T01:23:37.625Z,1.80
2019-01-09T01:26:11.736Z,2.30
2019-01-09T01:28:52.385Z,1.80
2019-01-09T01:31:38.887Z,1.80
2019-01-09T01:34:21.702Z,1.80
2019-01-09T01:37:17.915Z,1.80
2019-01-09T01:39:49.525Z,1.80
2019-01-09T01:42:32.672Z,1.80
2019-01-09T01:45:24.993Z,1.80
2019-01-09T01:48:11.572Z,1.70
2019-01-09T01:50:45.787Z,1.70
2019-01-09T01:53:23.357Z,1.80
2019-01-09T01:56:14.073Z,1.70
2019-01-09T01:58:48.325Z,1.70
2019-01-09T02:01:23.026Z,1.70
2019-01-09T02:03:57.364Z,1.70
2019-01-09T02:06:40.975Z,1.70
2019-01-09T02:09:45.297Z,1.60
2019-01-09T02:12:22.661Z,1.70
2019-01-09T02:15:06.142Z,1.70
2019-01-09T02:17:43.417Z,1.60
2019-01-09T02:20:26.680Z,1.70
2019-01-09T02:23:03.779Z,1.70
2019-01-09T02:25:50.220Z,1.70
2019-01-09T02:28:30.626Z,1.80
2019-01-09T02:31:02.199Z,1.60
2019-01-09T02:33:30.650Z,1.70
2019-01-09T02:35:59.168Z,1.70
2019-01-09T02:38:27.658Z,1.70
2019-01-09T02:40:56.145Z,1.70
2019-01-09T02:43:24.669Z,1.70
2019-01-09T02:45:53.235Z,1.70
2019-01-09T02:48:21.785Z,1.70
2019-01-09T02:50:50.276Z,1.60
2019-01-09T02:53:18.718Z,1.50
2019-01-09T02:55:47.190Z,1.70
2019-01-09T02:58:15.728Z,1.70
2019-01-09T03:00:44.291Z,1.70
2019-01-09T03:03:12.808Z,1.60
2019-01-09T03:05:41.370Z,1.70
2019-01-09T03:08:09.824Z,1.70
2019-01-09T03:10:38.283Z,1.60
2019-01-09T03:13:07.306Z,1.70
2019-01-09T03:15:35.949Z,1.70
2019-01-09T03:18:04.457Z,1.60
2019-01-09T03:20:32.939Z,1.70
2019-01-09T03:23:01.391Z,1.60
2019-01-09T03:25:29.887Z,1.60
2019-01-09T03:27:58.466Z,1.60
2019-01-09T03:30:27.527Z,1.60
2019-01-09T03:32:56.186Z,1.60
2019-01-09T03:35:24.748Z,1.60
2019-01-09T03:37:53.265Z,1.60
2019-01-09T03:40:21.824Z,1.60
2019-01-09T03:42:50.278Z,1.60
2019-01-09T03:45:19.318Z,1.50
2019-01-09T03:47:47.780Z,1.50
2019-01-09T03:50:16.264Z,1.50
2019-01-09T03:52:44.721Z,1.50
2019-01-09T03:55:13.730Z,1.50
2019-01-09T03:57:42.228Z,1.50
2019-01-09T04:00:10.827Z,1.50
2019-01-09T04:02:39.565Z,1.50
2019-01-09T04:05:08.101Z,1.60
2019-01-09T04:07:36.591Z,1.60
2019-01-09T04:10:07.340Z,1.60
2019-01-09T04:12:35.912Z,1.60
2019-01-09T04:15:06.287Z,1.60
2019-01-09T04:17:34.806Z,1.60
2019-01-09T04:20:03.798Z,1.60
2019-01-09T04:22:32.372Z,1.60
2019-01-09T04:25:00.866Z,1.70
2019-01-09T04:27:29.391Z,1.70
2019-01-09T04:29:57.877Z,1.50
2019-01-09T04:32:26.418Z,1.70
2019-01-09T04:34:54.904Z,1.80
2019-01-09T04:37:23.559Z,1.80
2019-01-09T04:39:52.007Z,1.80
2019-01-09T04:42:20.552Z,1.50
2019-01-09T04:44:49.013Z,1.70
2019-01-09T04:47:17.498Z,1.70
2019-01-09T04:49:45.977Z,1.70
2019-01-09T04:52:14.525Z,1.70
2019-01-09T04:54:43.062Z,1.70
2019-01-09T04:57:11.583Z,1.80
2019-01-09T04:59:40.025Z,1.80
2019-01-09T05:02:08.482Z,1.80
2019-01-09T05:04:36.970Z,1.80
2019-01-09T05:07:05.585Z,1.80
2019-01-09T05:09:34.204Z,1.70
2019-01-09T05:12:02.736Z,1.80
2019-01-09T05:14:31.197Z,1.80
2019-01-09T05:16:59.677Z,1.90
2019-01-09T05:19:28.139Z,1.80
2019-01-09T05:21:56.693Z,1.80
2019-01-09T05:24:25.298Z,1.90
2019-01-09T05:26:53.786Z,1.80
2019-01-09T05:29:22.335Z,1.80
2019-01-09T05:31:50.823Z,1.80
2019-01-09T05:34:19.285Z,1.80
2019-01-09T05:36:47.787Z,1.80
2019-01-09T05:39:16.255Z,1.40
2019-01-09T05:41:44.789Z,1.80
2019-01-09T05:44:13.355Z,1.80
2019-01-09T05:46:41.808Z,1.80
2019-01-09T05:49:10.390Z,1.80
2019-01-09T05:51:38.934Z,1.80
2019-01-09T05:54:07.459Z,1.80
2019-01-09T05:56:35.947Z,1.80
2019-01-09T05:59:04.421Z,1.60
2019-01-09T06:01:32.932Z,1.80
2019-01-09T06:04:03.233Z,2.00
2019-01-09T06:06:32.006Z,1.80
2019-01-09T06:09:00.496Z,1.80
2019-01-09T06:11:28.945Z,1.80
2019-01-09T06:13:57.480Z,1.80
2019-01-09T06:16:26.727Z,1.80
2019-01-09T06:18:56.716Z,1.80
2019-01-09T06:21:25.187Z,1.80
2019-01-09T06:23:53.746Z,2.10
2019-01-09T06:26:22.200Z,1.80
2019-01-09T06:28:50.864Z,1.70
2019-01-09T06:31:19.328Z,1.60
2019-01-09T06:33:47.853Z,1.70
2019-01-09T06:36:16.340Z,1.70
2019-01-09T06:38:44.862Z,1.60
2019-01-09T06:41:13.338Z,1.50
2019-01-09T06:43:41.880Z,1.50
2019-01-09T06:46:10.428Z,1.50
2019-01-09T06:48:38.877Z,1.60
2019-01-09T06:51:07.430Z,1.50
2019-01-09T06:53:35.920Z,1.60
2019-01-09T06:56:04.439Z,1.60
2019-01-09T06:58:32.976Z,1.60
2019-01-09T07:01:01.476Z,1.60
2019-01-09T07:03:29.956Z,1.60
2019-01-09T07:05:58.428Z,1.60
2019-01-09T07:08:26.994Z,1.60
2019-01-09T07:10:55.434Z,1.60
2019-01-09T07:13:23.940Z,1.60
2019-01-09T07:15:52.373Z,1.60
2019-01-09T07:18:20.820Z,1.60
2019-01-09T07:20:49.336Z,1.60
2019-01-09T07:23:17.852Z,1.60
2019-01-09T07:25:46.371Z,1.50
2019-01-09T07:28:14.852Z,2.00
2019-01-09T07:30:43.402Z,1.50
2019-01-09T07:33:11.840Z,1.30
2019-01-09T07:35:40.895Z,1.50
2019-01-09T07:38:09.421Z,1.60
2019-01-09T07:40:37.924Z,1.60
2019-01-09T07:43:06.511Z,1.60
2019-01-09T07:45:35.008Z,1.60
2019-01-09T07:48:03.461Z,1.60
2019-01-09T07:50:31.912Z,1.60
2019-01-09T07:53:00.388Z,1.60
2019-01-09T07:55:28.885Z,1.30
2019-01-09T07:57:57.337Z,1.30
2019-01-09T08:00:25.873Z,1.20
2019-01-09T08:02:54.492Z,1.00
2019-01-09T08:05:22.942Z,0.90
2019-01-09T08:07:54.289Z,0.90
2019-01-09T08:10:21.593Z,0.90
2019-01-09T08:12:50.038Z,0.90
2019-01-09T08:15:18.511Z,0.90
2019-01-09T08:17:47.008Z,0.90
2019-01-09T08:20:15.484Z,0.90
2019-01-09T08:22:44.008Z,0.90
2019-01-09T08:25:12.487Z,0.90
2019-01-09T08:27:40.974Z,1.00
2019-01-09T08:30:10.695Z,1.00
2019-01-09T08:32:39.139Z,1.00
2019-01-09T08:35:07.982Z,1.00
2019-01-09T08:37:36.578Z,1.00
2019-01-09T08:40:07.699Z,1.10
2019-01-09T08:42:36.249Z,1.10
2019-01-09T08:45:05.831Z,1.10
2019-01-09T08:47:34.311Z,1.10
2019-01-09T08:50:02.811Z,1.10
2019-01-09T08:52:32.608Z,1.10
2019-01-09T08:55:01.215Z,1.20
2019-01-09T08:57:29.741Z,1.20
2019-01-09T08:59:58.189Z,1.20
2019-01-09T09:02:26.636Z,1.30
2019-01-09T09:04:55.113Z,1.30
2019-01-09T09:07:25.449Z,1.40
2019-01-09T09:09:54.004Z,1.40
2019-01-09T09:12:22.483Z,1.30
2019-01-09T09:14:51.031Z,1.40
2019-01-09T09:17:19.491Z,1.40
2019-01-09T09:19:47.969Z,1.50
2019-01-09T09:22:16.425Z,1.50
2019-01-09T09:24:44.909Z,1.60
2019-01-09T09:27:13.360Z,1.60
2019-01-09T09:29:41.847Z,1.60
2019-01-09T09:32:10.298Z,1.60
2019-01-09T09:34:38.748Z,1.70
2019-01-09T09:37:07.375Z,1.70
2019-01-09T09:39:35.831Z,1.70
2019-01-09T09:42:04.311Z,1.60
2019-01-09T09:44:32.752Z,1.60
2019-01-09T09:47:01.246Z,1.70
2019-01-09T09:49:29.729Z,1.70
2019-01-09T09:51:58.215Z,1.70
2019-01-09T09:54:26.674Z,1.80
2019-01-09T09:56:55.232Z,1.80
2019-01-09T09:59:23.703Z,1.80
2019-01-09T10:04:20.326Z,2.00
2019-01-09T10:06:48.844Z,1.90
2019-01-09T10:09:17.312Z,1.80
2019-01-09T10:11:45.868Z,1.80
2019-01-09T10:14:14.336Z,1.70
2019-01-09T10:16:42.798Z,1.70
2019-01-09T10:19:11.299Z,1.70
2019-01-09T10:21:39.901Z,1.60
2019-01-09T10:24:08.372Z,1.60
2019-01-09T10:26:36.858Z,1.70
2019-01-09T10:29:05.354Z,1.60
2019-01-09T10:31:33.796Z,1.60
2019-01-09T10:34:02.256Z,1.60
2019-01-09T10:36:30.746Z,1.60
2019-01-09T10:38:59.272Z,1.50
2019-01-09T10:41:27.750Z,1.50
2019-01-09T10:43:56.229Z,1.50
2019-01-09T10:46:24.702Z,1.40
2019-01-09T10:48:53.150Z,1.40
2019-01-09T10:51:41.032Z,1.30
2019-01-09T10:57:11.746Z,1.40
2019-01-09T12:25:34.105Z,1.10
2019-01-09T13:00:39.682Z,0.90
2019-01-09T13:03:08.326Z,0.80
2019-01-09T13:05:36.939Z,0.70
2019-01-09T13:08:05.520Z,0.80
2019-01-09T13:10:34.059Z,0.80
2019-01-09T13:13:02.575Z,0.60
2019-01-09T13:15:31.097Z,0.50
2019-01-09T13:17:59.668Z,0.80
2019-01-09T13:20:28.187Z,0.80
2019-01-09T13:22:56.680Z,0.70
2019-01-09T13:25:25.163Z,0.70
2019-01-09T13:27:53.625Z,0.70
2019-01-09T13:30:22.630Z,0.70
2019-01-09T13:32:51.274Z,1.10
2019-01-09T13:35:19.863Z,0.70
2019-01-09T13:40:18.195Z,0.80
2019-01-09T13:45:19.247Z,0.80
2019-01-09T13:47:47.862Z,0.70
2019-01-09T13:50:18.256Z,0.80
2019-01-09T13:52:47.217Z,0.70
2019-01-09T13:55:16.759Z,0.70
2019-01-09T13:57:45.408Z,0.70
2019-01-09T14:00:19.574Z,0.70
2019-01-09T14:02:48.238Z,0.70
2019-01-09T14:05:16.796Z,0.60
2019-01-09T14:07:45.663Z,0.70
2019-01-09T14:10:22.170Z,0.70
2019-01-09T14:12:50.675Z,0.80
2019-01-09T14:15:20.740Z,0.70
2019-01-09T14:17:49.405Z,0.70
2019-01-09T14:20:18.901Z,0.80
2019-01-09T14:22:47.596Z,0.70
2019-01-09T14:25:17.211Z,0.70
2019-01-09T14:27:45.968Z,0.70
2019-01-09T14:30:20.417Z,0.70
2019-01-09T14:32:48.962Z,0.70
2019-01-09T14:35:17.498Z,0.60
2019-01-09T14:37:46.063Z,0.60
2019-01-09T14:40:17.501Z,0.50
2019-01-09T14:42:46.062Z,0.50
2019-01-09T14:45:16.295Z,0.40
2019-01-09T14:47:45.137Z,0.40
2019-01-09T14:50:16.694Z,0.40
2019-01-09T14:52:45.366Z,0.40
2019-01-09T14:55:14.275Z,0.70
2019-01-09T14:57:42.981Z,0.50
2019-01-09T15:00:17.172Z,0.30
2019-01-09T15:02:45.726Z,0.50
2019-01-09T15:05:14.588Z,0.50
2019-01-09T15:10:14.352Z,0.70
2019-01-09T15:15:14.117Z,0.60
2019-01-09T15:17:42.653Z,0.60
2019-01-09T15:20:14.385Z,0.80
2019-01-09T15:32:38.463Z,0.50
2019-01-09T15:35:09.666Z,0.40
2019-01-09T15:37:38.291Z,0.50
2019-01-09T15:40:21.341Z,0.50
2019-01-09T15:42:50.114Z,0.30
2019-01-09T15:45:18.670Z,0.00
2019-01-09T15:47:47.320Z,0.60
2019-01-09T15:50:20.980Z,0.60
2019-01-09T15:52:49.553Z,0.50
2019-01-09T15:55:18.481Z,0.50
2019-01-09T15:57:49.217Z,0.40
2019-01-09T16:00:20.792Z,0.50
2019-01-09T16:02:52.565Z,0.40
2019-01-09T16:05:21.275Z,0.50
2019-01-09T16:07:49.880Z,0.50
2019-01-09T16:10:23.146Z,0.40
2019-01-09T16:12:51.749Z,0.30
2019-01-09T16:17:48.657Z,0.30
2019-01-09T16:22:49.450Z,0.30
2019-01-09T16:25:19.484Z,0.90
2019-01-09T16:35:22.827Z,0.20
2019-01-09T16:40:23.550Z,0.10
2019-01-09T16:42:52.436Z,0.70
2019-01-09T16:45:21.259Z,0.30
2019-01-09T16:47:49.779Z,0.40
2019-01-09T16:50:24.456Z,0.30
2019-01-09T16:52:52.996Z,0.40
2019-01-09T16:55:21.708Z,0.20
2019-01-09T17:00:27.644Z,0.40
2019-01-09T17:02:56.912Z,0.30
2019-01-09T17:05:25.596Z,0.30
2019-01-09T17:07:54.518Z,0.20
2019-01-09T17:10:31.943Z,0.10
2019-01-09T17:12:53.523Z,0.00
2019-01-09T17:15:22.199Z,0.20
2019-01-09T17:17:50.830Z,0.20
2019-01-09T17:20:21.949Z,0.50
2019-01-09T17:22:50.688Z,0.20
2019-01-09T17:25:19.266Z,0.10
2019-01-09T17:30:30.047Z,0.20
2019-01-09T17:32:58.758Z,0.10
2019-01-09T17:35:27.670Z,0.20
2019-01-09T17:40:26.403Z,0.00
2019-01-09T17:42:55.115Z,0.00
2019-01-09T17:47:53.107Z,0.00
2019-01-09T17:50:27.674Z,0.00
2019-01-09T17:52:56.617Z,0.30
2019-01-09T17:57:53.729Z,0.10
2019-01-09T18:00:36.657Z,0.10
2019-01-09T18:05:34.660Z,0.10
2019-01-09T18:08:10.748Z,0.10
2019-01-09T18:10:36.490Z,-0.10
2019-01-09T18:13:05.125Z,0.30
2019-01-09T18:15:35.211Z,0.10
2019-01-09T18:18:04.018Z,0.00
2019-01-09T18:25:30.841Z,0.20
2019-01-09T18:33:15.567Z,-0.10
2019-01-09T18:38:31.431Z,0.00
2019-01-09T18:51:32.547Z,0.00
2019-01-09T18:54:03.856Z,-0.30
2019-01-09T18:56:32.423Z,0.00
2019-01-09T18:59:01.182Z,0.00
2019-01-09T19:06:35.219Z,0.00
2019-01-09T19:08:58.609Z,-0.10
2019-01-09T19:11:27.245Z,0.00
2019-01-09T19:13:56.914Z,0.00
2019-01-09T19:16:26.701Z,-0.10
2019-01-09T19:18:55.942Z,-0.30
2019-01-09T19:21:24.587Z,0.00
2019-01-09T19:23:55.085Z,-0.20
2019-01-09T19:26:27.274Z,-0.20
2019-01-09T19:28:55.987Z,-0.10
2019-01-09T19:31:26.184Z,0.00
2019-01-09T19:33:54.904Z,-0.30
2019-01-09T19:38:56.551Z,0.60
2019-01-09T19:41:26.248Z,0.10
2019-01-09T19:43:54.861Z,-0.10
2019-01-09T19:48:52.208Z,-0.40
2019-01-09T19:51:22.291Z,0.00
2019-01-09T19:53:52.490Z,0.00
2019-01-09T19:56:21.117Z,-0.20
2019-01-09T19:58:51.431Z,-0.10
2019-01-09T20:01:22.879Z,0.30
2019-01-09T20:03:54.568Z,-0.50
2019-01-09T20:06:23.325Z,0.00
2019-01-09T20:11:26.578Z,-0.10
2019-01-09T20:13:55.545Z,-0.30
2019-01-09T20:16:24.545Z,0.00
2019-01-09T20:18:53.371Z,0.00
2019-01-09T20:21:22.808Z,-0.20
2019-01-09T20:26:20.068Z,-0.20
2019-01-09T20:28:50.321Z,0.10
2019-01-09T20:31:21.938Z,-0.50
2019-01-09T20:38:52.131Z,-0.40
2019-01-09T20:41:35.063Z,0.00
2019-01-09T20:43:58.880Z,-0.20
2019-01-09T20:51:35.937Z,-0.30
2019-01-09T20:54:06.026Z,-0.20
2019-01-09T20:56:34.651Z,-0.20
2019-01-09T20:59:03.697Z,-0.20
2019-01-09T21:01:32.552Z,-0.20
2019-01-09T21:04:04.270Z,-0.20
2019-01-09T21:06:32.975Z,-0.20
2019-01-09T21:11:43.894Z,-0.10
2019-01-09T21:16:32.207Z,-0.10
2019-01-09T21:19:03.340Z,-0.20
2019-01-09T21:21:34.334Z,-0.10
2019-01-09T21:24:03.084Z,-0.30
2019-01-09T21:26:36.298Z,-0.40
2019-01-09T21:29:07.875Z,-0.30
2019-01-09T21:36:36.598Z,-0.10
2019-01-09T21:39:08.878Z,-0.10
2019-01-09T21:41:39.045Z,0.00
2019-01-09T21:44:15.604Z,0.00
2019-01-09T21:46:45.900Z,-0.30
2019-01-09T21:49:08.478Z,0.00
2019-01-09T21:51:39.893Z,-0.30
2019-01-09T21:54:10.651Z,-0.30
2019-01-09T21:56:41.995Z,-0.10
2019-01-09T21:59:10.507Z,-0.80
2019-01-09T22:01:39.729Z,-0.40
2019-01-09T22:04:09.011Z,-0.10
2019-01-09T22:06:38.809Z,-0.10
2019-01-09T22:09:07.473Z,-0.30
2019-01-09T22:11:36.105Z,-0.40
2019-01-09T22:14:05.095Z,-0.20
2019-01-09T22:21:36.201Z,0.00
2019-01-09T22:24:05.838Z,0.00
2019-01-09T22:26:36.264Z,-0.10
2019-01-09T22:34:01.453Z,-0.20
2019-01-09T22:36:30.053Z,-0.10
2019-01-09T22:38:59.151Z,-0.50
2019-01-09T22:41:27.679Z,-0.30
2019-01-09T22:43:56.291Z,-0.20
2019-01-09T22:46:24.927Z,-0.30
2019-01-09T22:51:22.062Z,-0.10
2019-01-09T22:53:50.599Z,-0.30
2019-01-09T22:56:19.201Z,-0.30
2019-01-09T22:58:47.847Z,-0.30
2019-01-09T23:01:17.058Z,-0.20
2019-01-09T23:03:47.329Z,-0.40
2019-01-09T23:06:16.512Z,0.00
2019-01-09T23:08:45.170Z,-0.10
2019-01-09T23:18:38.431Z,-0.10
2019-01-09T23:21:07.322Z,-0.40
2019-01-09T23:23:35.886Z,-0.30
2019-01-09T23:26:04.789Z,-0.20
2019-01-09T23:28:33.359Z,-0.50
2019-01-09T23:31:03.904Z,-0.30
2019-01-09T23:36:00.529Z,0.00
2019-01-09T23:38:29.026Z,-0.10
2019-01-09T23:43:25.716Z,-0.30
2019-01-09T23:45:54.410Z,0.30
2019-01-09T23:48:22.935Z,-0.30
2019-01-09T23:50:51.473Z,-0.10
2019-01-09T23:53:20.112Z,-0.20
2019-01-09T23:55:48.670Z,-0.20
2019-01-09T23:58:17.114Z,-0.10
